Pickle Lake, Ontario

Past 24 Hour Conditions

This table is a summary of hourly weather conditions for the past 24 hours. This summary includes the following parameters: temperature, humidity, dew point, wind speed and direction, air pressure, visibility and/or wind chill and humidex.
Date / Time
(EST)
Conditions Temp (°F) Humidity (%) Dew Point (°F) Wind (mph) Pressure (inches) Visibility (miles)
29 August 2014
00:00 N/A 64 71 54 SSW 11 29.8 N/A
28 August 2014
23:00 N/A 64 69 53 SSW 9 29.8 N/A
22:00 N/A 64 66 52 SSW 9 29.9 N/A
21:00 N/A 65 61 52 SSW 7 29.9 N/A
20:00 N/A 68 54 51 SSW 8 29.9 N/A
19:00 N/A 71 45 49 SSW 13 29.9 N/A
18:00 N/A 73 38 46 SW 13 gust 22 29.9 N/A
17:00 N/A 74 33 43 SW 16 gust 23 29.9 N/A
16:00 N/A 74 32 43 SW 16 gust 23 29.9 N/A
15:00 N/A 75   33 44 SW 12 gust 21 29.9 N/A
14:00 N/A 74 32 42 SSW 14 gust 22 30.0 N/A
13:00 N/A 72 37 45 SW 16 gust 24 30.0 N/A
12:00 N/A 70 43 46 SSW 18 gust 23 30.0 N/A
11:00 N/A 69 49 49 SSW 11 gust 18 30.0 N/A
10:00 N/A 66 58 51 WSW 8 30.0 N/A
9:00 N/A 62 66 50 SW 10 30.1 N/A
8:00 N/A 57 79 51 SW 10 30.1 N/A
7:00 N/A 53   87 50 SSW 9 30.1 N/A
6:00 N/A 53   86 49 SW 10 30.1 N/A
5:00 N/A 53   87 49 SW 10 30.1 N/A
4:00 N/A 53   86 49 SSW 8 30.1 N/A
3:00 N/A 55 80 49 SW 8 30.1 N/A
2:00 N/A 55 79 49 SW 8 30.1 N/A
1:00 N/A 56 77 49 SW 9 30.1 N/A
00:00 N/A 55 79 49 SW 7 30.1 N/A
N/A
Not available
 ↑ 
Highest temperature
 ↓ 
Lowest temperature

If you require additional historical weather information, please visit Climate Data Online.